sensor_id;sensor_type;location;lat;lon;timestamp;P1;durP1;ratioP1;P2;durP2;ratioP2
43160;SDS011;40968;52.342;5.528;2023-05-07T00:01:28;17.52;;;6.38;;
43160;SDS011;40968;52.342;5.528;2023-05-07T00:03:54;18.65;;;7.60;;
43160;SDS011;40968;52.342;5.528;2023-05-07T00:06:21;12.93;;;5.57;;
43160;SDS011;40968;52.342;5.528;2023-05-07T00:08:47;12.45;;;6.25;;
43160;SDS011;40968;52.342;5.528;2023-05-07T00:11:14;16.25;;;6.30;;
43160;SDS011;40968;52.342;5.528;2023-05-07T00:13:42;11.50;;;5.35;;
43160;SDS011;40968;52.342;5.528;2023-05-07T00:16:09;11.82;;;5.90;;
43160;SDS011;40968;52.342;5.528;2023-05-07T00:18:35;11.82;;;5.53;;
43160;SDS011;40968;52.342;5.528;2023-05-07T00:21:02;13.95;;;5.80;;
43160;SDS011;40968;52.342;5.528;2023-05-07T00:23:28;15.02;;;6.35;;
43160;SDS011;40968;52.342;5.528;2023-05-07T00:25:55;13.18;;;6.05;;
43160;SDS011;40968;52.342;5.528;2023-05-07T00:28:22;14.07;;;6.15;;
43160;SDS011;40968;52.342;5.528;2023-05-07T00:30:50;10.05;;;5.35;;
43160;SDS011;40968;52.342;5.528;2023-05-07T00:33:16;10.85;;;5.43;;
43160;SDS011;40968;52.342;5.528;2023-05-07T00:35:43;13.25;;;5.55;;
43160;SDS011;40968;52.342;5.528;2023-05-07T00:38:09;15.52;;;5.85;;
43160;SDS011;40968;52.342;5.528;2023-05-07T00:40:36;11.75;;;5.40;;
43160;SDS011;40968;52.342;5.528;2023-05-07T00:43:03;12.20;;;5.15;;
43160;SDS011;40968;52.342;5.528;2023-05-07T00:45:29;10.95;;;5.10;;
43160;SDS011;40968;52.342;5.528;2023-05-07T00:47:59;11.73;;;5.10;;
43160;SDS011;40968;52.342;5.528;2023-05-07T00:50:27;12.23;;;5.88;;
43160;SDS011;40968;52.342;5.528;2023-05-07T00:52:54;11.95;;;5.13;;
43160;SDS011;40968;52.342;5.528;2023-05-07T00:55:22;15.45;;;5.07;;
43160;SDS011;40968;52.342;5.528;2023-05-07T00:57:49;12.75;;;5.82;;
43160;SDS011;40968;52.342;5.528;2023-05-07T01:00:17;12.02;;;5.00;;
43160;SDS011;40968;52.342;5.528;2023-05-07T01:02:44;12.50;;;5.72;;
43160;SDS011;40968;52.342;5.528;2023-05-07T01:05:13;10.63;;;5.80;;
43160;SDS011;40968;52.342;5.528;2023-05-07T01:07:43;14.02;;;5.53;;
43160;SDS011;40968;52.342;5.528;2023-05-07T01:10:10;13.02;;;6.60;;
43160;SDS011;40968;52.342;5.528;2023-05-07T01:12:38;14.32;;;5.70;;
43160;SDS011;40968;52.342;5.528;2023-05-07T01:15:07;13.80;;;6.82;;
43160;SDS011;40968;52.342;5.528;2023-05-07T01:17:35;11.90;;;6.10;;
43160;SDS011;40968;52.342;5.528;2023-05-07T01:20:02;13.93;;;5.97;;
43160;SDS011;40968;52.342;5.528;2023-05-07T01:22:31;21.73;;;6.70;;
43160;SDS011;40968;52.342;5.528;2023-05-07T01:24:59;12.63;;;5.15;;
43160;SDS011;40968;52.342;5.528;2023-05-07T01:27:26;11.88;;;5.32;;
43160;SDS011;40968;52.342;5.528;2023-05-07T01:29:53;12.57;;;5.97;;
43160;SDS011;40968;52.342;5.528;2023-05-07T01:32:21;11.60;;;5.20;;
43160;SDS011;40968;52.342;5.528;2023-05-07T01:34:53;12.48;;;5.63;;
43160;SDS011;40968;52.342;5.528;2023-05-07T01:37:21;11.15;;;5.75;;
43160;SDS011;40968;52.342;5.528;2023-05-07T01:39:50;13.60;;;5.88;;
43160;SDS011;40968;52.342;5.528;2023-05-07T01:42:17;16.70;;;6.28;;
43160;SDS011;40968;52.342;5.528;2023-05-07T01:44:43;11.25;;;5.63;;
43160;SDS011;40968;52.342;5.528;2023-05-07T01:47:10;13.15;;;5.47;;
43160;SDS011;40968;52.342;5.528;2023-05-07T01:49:38;16.00;;;6.03;;
43160;SDS011;40968;52.342;5.528;2023-05-07T01:52:05;9.82;;;4.95;;
43160;SDS011;40968;52.342;5.528;2023-05-07T01:54:32;12.68;;;5.93;;
43160;SDS011;40968;52.342;5.528;2023-05-07T01:57:00;13.07;;;5.55;;
43160;SDS011;40968;52.342;5.528;2023-05-07T01:59:27;13.60;;;5.65;;
43160;SDS011;40968;52.342;5.528;2023-05-07T02:01:53;13.23;;;6.30;;
43160;SDS011;40968;52.342;5.528;2023-05-07T02:04:20;14.65;;;6.43;;
43160;SDS011;40968;52.342;5.528;2023-05-07T02:06:46;14.25;;;6.20;;
43160;SDS011;40968;52.342;5.528;2023-05-07T02:09:13;15.23;;;6.80;;
43160;SDS011;40968;52.342;5.528;2023-05-07T02:11:41;13.85;;;6.88;;
43160;SDS011;40968;52.342;5.528;2023-05-07T02:14:09;14.80;;;6.38;;
43160;SDS011;40968;52.342;5.528;2023-05-07T02:16:35;13.93;;;6.82;;
43160;SDS011;40968;52.342;5.528;2023-05-07T02:19:02;15.73;;;7.10;;
43160;SDS011;40968;52.342;5.528;2023-05-07T02:21:28;17.65;;;7.50;;
43160;SDS011;40968;52.342;5.528;2023-05-07T02:23:55;18.42;;;7.50;;
43160;SDS011;40968;52.342;5.528;2023-05-07T02:26:21;18.08;;;7.20;;
43160;SDS011;40968;52.342;5.528;2023-05-07T02:28:48;22.05;;;8.48;;
43160;SDS011;40968;52.342;5.528;2023-05-07T02:31:17;17.92;;;7.25;;
43160;SDS011;40968;52.342;5.528;2023-05-07T02:33:43;15.27;;;7.82;;
43160;SDS011;40968;52.342;5.528;2023-05-07T02:36:10;17.95;;;8.48;;
43160;SDS011;40968;52.342;5.528;2023-05-07T02:38:38;19.60;;;7.82;;
43160;SDS011;40968;52.342;5.528;2023-05-07T02:41:04;18.40;;;7.45;;
43160;SDS011;40968;52.342;5.528;2023-05-07T02:43:31;21.33;;;7.80;;
43160;SDS011;40968;52.342;5.528;2023-05-07T02:46:01;17.23;;;7.97;;
43160;SDS011;40968;52.342;5.528;2023-05-07T02:50:56;16.42;;;8.07;;
43160;SDS011;40968;52.342;5.528;2023-05-07T02:53:23;16.52;;;7.47;;
43160;SDS011;40968;52.342;5.528;2023-05-07T02:55:51;22.52;;;8.38;;
43160;SDS011;40968;52.342;5.528;2023-05-07T02:58:18;17.05;;;8.15;;
43160;SDS011;40968;52.342;5.528;2023-05-07T03:00:44;21.75;;;8.30;;
43160;SDS011;40968;52.342;5.528;2023-05-07T03:03:11;15.23;;;7.15;;
43160;SDS011;40968;52.342;5.528;2023-05-07T03:05:39;16.08;;;7.55;;
43160;SDS011;40968;52.342;5.528;2023-05-07T03:08:06;25.45;;;8.57;;
43160;SDS011;40968;52.342;5.528;2023-05-07T03:10:34;17.67;;;7.97;;
43160;SDS011;40968;52.342;5.528;2023-05-07T03:13:01;16.83;;;7.57;;
43160;SDS011;40968;52.342;5.528;2023-05-07T03:15:28;21.83;;;8.63;;
43160;SDS011;40968;52.342;5.528;2023-05-07T03:17:55;14.70;;;7.10;;
43160;SDS011;40968;52.342;5.528;2023-05-07T03:20:22;15.88;;;7.53;;
43160;SDS011;40968;52.342;5.528;2023-05-07T03:22:50;19.90;;;8.77;;
43160;SDS011;40968;52.342;5.528;2023-05-07T03:25:16;14.27;;;6.03;;
43160;SDS011;40968;52.342;5.528;2023-05-07T03:27:43;24.08;;;8.80;;
43160;SDS011;40968;52.342;5.528;2023-05-07T03:30:10;18.60;;;8.90;;
43160;SDS011;40968;52.342;5.528;2023-05-07T03:32:37;19.60;;;8.10;;
43160;SDS011;40968;52.342;5.528;2023-05-07T03:35:04;12.38;;;5.57;;
43160;SDS011;40968;52.342;5.528;2023-05-07T03:37:32;21.35;;;8.50;;
43160;SDS011;40968;52.342;5.528;2023-05-07T03:40:00;21.40;;;9.63;;
43160;SDS011;40968;52.342;5.528;2023-05-07T03:42:27;29.83;;;10.10;;
43160;SDS011;40968;52.342;5.528;2023-05-07T03:44:54;26.30;;;10.15;;
43160;SDS011;40968;52.342;5.528;2023-05-07T03:47:21;21.10;;;10.02;;
43160;SDS011;40968;52.342;5.528;2023-05-07T03:49:48;18.50;;;9.13;;
43160;SDS011;40968;52.342;5.528;2023-05-07T03:52:15;24.75;;;10.60;;
43160;SDS011;40968;52.342;5.528;2023-05-07T03:54:47;28.50;;;12.00;;
43160;SDS011;40968;52.342;5.528;2023-05-07T03:57:15;26.48;;;11.88;;
43160;SDS011;40968;52.342;5.528;2023-05-07T03:59:42;30.33;;;11.48;;
43160;SDS011;40968;52.342;5.528;2023-05-07T04:02:09;26.50;;;11.23;;
43160;SDS011;40968;52.342;5.528;2023-05-07T04:04:35;29.73;;;11.05;;
43160;SDS011;40968;52.342;5.528;2023-05-07T04:07:02;24.98;;;9.57;;
43160;SDS011;40968;52.342;5.528;2023-05-07T04:09:29;20.48;;;9.68;;
43160;SDS011;40968;52.342;5.528;2023-05-07T04:11:56;28.35;;;12.52;;
43160;SDS011;40968;52.342;5.528;2023-05-07T04:14:23;27.35;;;12.77;;
43160;SDS011;40968;52.342;5.528;2023-05-07T04:16:50;31.23;;;14.52;;
43160;SDS011;40968;52.342;5.528;2023-05-07T04:19:17;36.78;;;16.23;;
43160;SDS011;40968;52.342;5.528;2023-05-07T04:21:43;28.60;;;11.43;;
43160;SDS011;40968;52.342;5.528;2023-05-07T04:24:10;35.33;;;15.63;;
43160;SDS011;40968;52.342;5.528;2023-05-07T04:26:36;35.47;;;15.05;;
43160;SDS011;40968;52.342;5.528;2023-05-07T04:29:03;34.78;;;15.80;;
43160;SDS011;40968;52.342;5.528;2023-05-07T04:31:31;34.45;;;14.93;;
43160;SDS011;40968;52.342;5.528;2023-05-07T04:33:57;36.67;;;14.95;;
43160;SDS011;40968;52.342;5.528;2023-05-07T04:36:24;39.42;;;16.98;;
43160;SDS011;40968;52.342;5.528;2023-05-07T04:38:52;40.42;;;16.77;;
43160;SDS011;40968;52.342;5.528;2023-05-07T04:41:19;40.13;;;16.60;;
43160;SDS011;40968;52.342;5.528;2023-05-07T04:43:45;41.72;;;16.50;;
43160;SDS011;40968;52.342;5.528;2023-05-07T04:46:12;45.25;;;17.63;;
43160;SDS011;40968;52.342;5.528;2023-05-07T04:48:40;39.30;;;17.17;;
43160;SDS011;40968;52.342;5.528;2023-05-07T04:51:06;45.50;;;18.77;;
43160;SDS011;40968;52.342;5.528;2023-05-07T04:53:33;45.67;;;18.95;;
43160;SDS011;40968;52.342;5.528;2023-05-07T04:56:00;31.38;;;15.32;;
43160;SDS011;40968;52.342;5.528;2023-05-07T04:58:26;45.40;;;19.67;;
43160;SDS011;40968;52.342;5.528;2023-05-07T05:00:56;43.72;;;17.73;;
43160;SDS011;40968;52.342;5.528;2023-05-07T05:03:23;45.95;;;19.30;;
43160;SDS011;40968;52.342;5.528;2023-05-07T05:05:51;48.42;;;19.08;;
43160;SDS011;40968;52.342;5.528;2023-05-07T05:08:18;47.40;;;19.33;;
43160;SDS011;40968;52.342;5.528;2023-05-07T05:10:45;44.70;;;18.00;;
43160;SDS011;40968;52.342;5.528;2023-05-07T05:13:13;48.90;;;19.15;;
43160;SDS011;40968;52.342;5.528;2023-05-07T05:15:40;39.97;;;17.20;;
43160;SDS011;40968;52.342;5.528;2023-05-07T05:18:06;44.83;;;20.20;;
43160;SDS011;40968;52.342;5.528;2023-05-07T05:20:33;40.00;;;17.48;;
43160;SDS011;40968;52.342;5.528;2023-05-07T05:23:01;50.10;;;20.83;;
43160;SDS011;40968;52.342;5.528;2023-05-07T05:25:27;42.22;;;18.65;;
43160;SDS011;40968;52.342;5.528;2023-05-07T05:27:54;45.63;;;19.67;;
43160;SDS011;40968;52.342;5.528;2023-05-07T05:30:21;47.47;;;19.45;;
43160;SDS011;40968;52.342;5.528;2023-05-07T05:32:48;43.67;;;19.20;;
43160;SDS011;40968;52.342;5.528;2023-05-07T05:35:15;45.85;;;17.90;;
43160;SDS011;40968;52.342;5.528;2023-05-07T05:37:41;54.33;;;19.48;;
43160;SDS011;40968;52.342;5.528;2023-05-07T05:40:10;48.58;;;18.33;;
43160;SDS011;40968;52.342;5.528;2023-05-07T05:42:37;46.28;;;18.88;;
43160;SDS011;40968;52.342;5.528;2023-05-07T05:45:04;46.55;;;17.77;;
43160;SDS011;40968;52.342;5.528;2023-05-07T05:47:31;47.30;;;19.98;;
43160;SDS011;40968;52.342;5.528;2023-05-07T05:49:58;42.22;;;17.73;;
43160;SDS011;40968;52.342;5.528;2023-05-07T05:52:24;54.17;;;20.17;;
43160;SDS011;40968;52.342;5.528;2023-05-07T05:54:51;49.85;;;20.20;;
43160;SDS011;40968;52.342;5.528;2023-05-07T05:57:19;47.03;;;19.77;;
43160;SDS011;40968;52.342;5.528;2023-05-07T05:59:46;44.55;;;18.38;;
43160;SDS011;40968;52.342;5.528;2023-05-07T06:02:12;48.53;;;20.13;;
43160;SDS011;40968;52.342;5.528;2023-05-07T06:04:39;49.58;;;20.30;;
43160;SDS011;40968;52.342;5.528;2023-05-07T06:07:07;48.53;;;19.10;;
43160;SDS011;40968;52.342;5.528;2023-05-07T06:09:34;48.95;;;19.33;;
43160;SDS011;40968;52.342;5.528;2023-05-07T06:12:00;42.78;;;18.77;;
43160;SDS011;40968;52.342;5.528;2023-05-07T06:14:28;43.15;;;18.10;;
43160;SDS011;40968;52.342;5.528;2023-05-07T06:16:55;47.63;;;19.83;;
43160;SDS011;40968;52.342;5.528;2023-05-07T06:19:21;55.55;;;20.00;;
43160;SDS011;40968;52.342;5.528;2023-05-07T06:21:49;43.42;;;19.48;;
43160;SDS011;40968;52.342;5.528;2023-05-07T06:24:15;51.30;;;19.65;;
43160;SDS011;40968;52.342;5.528;2023-05-07T06:26:42;43.92;;;18.63;;
43160;SDS011;40968;52.342;5.528;2023-05-07T06:29:08;50.65;;;19.92;;
43160;SDS011;40968;52.342;5.528;2023-05-07T06:31:36;50.70;;;19.92;;
43160;SDS011;40968;52.342;5.528;2023-05-07T06:34:03;51.08;;;18.95;;
43160;SDS011;40968;52.342;5.528;2023-05-07T06:36:30;45.90;;;18.80;;
43160;SDS011;40968;52.342;5.528;2023-05-07T06:38:56;45.65;;;18.15;;
43160;SDS011;40968;52.342;5.528;2023-05-07T06:41:23;51.85;;;18.25;;
43160;SDS011;40968;52.342;5.528;2023-05-07T06:43:50;49.42;;;18.23;;
43160;SDS011;40968;52.342;5.528;2023-05-07T06:46:17;48.28;;;18.92;;
43160;SDS011;40968;52.342;5.528;2023-05-07T06:48:45;45.72;;;17.45;;
43160;SDS011;40968;52.342;5.528;2023-05-07T06:51:11;55.42;;;19.67;;
43160;SDS011;40968;52.342;5.528;2023-05-07T06:53:38;47.78;;;17.75;;
43160;SDS011;40968;52.342;5.528;2023-05-07T06:56:05;46.20;;;17.73;;
43160;SDS011;40968;52.342;5.528;2023-05-07T06:58:32;42.72;;;16.00;;
43160;SDS011;40968;52.342;5.528;2023-05-07T07:00:59;44.75;;;17.50;;
43160;SDS011;40968;52.342;5.528;2023-05-07T07:03:25;50.97;;;18.08;;
43160;SDS011;40968;52.342;5.528;2023-05-07T07:05:54;35.45;;;15.05;;
43160;SDS011;40968;52.342;5.528;2023-05-07T07:08:21;43.85;;;16.88;;
43160;SDS011;40968;52.342;5.528;2023-05-07T07:10:48;40.20;;;15.95;;
43160;SDS011;40968;52.342;5.528;2023-05-07T07:13:14;43.50;;;15.43;;
43160;SDS011;40968;52.342;5.528;2023-05-07T07:15:41;40.35;;;16.50;;
43160;SDS011;40968;52.342;5.528;2023-05-07T07:18:08;35.83;;;13.73;;
43160;SDS011;40968;52.342;5.528;2023-05-07T07:20:34;39.63;;;16.48;;
43160;SDS011;40968;52.342;5.528;2023-05-07T07:23:02;47.00;;;17.13;;
43160;SDS011;40968;52.342;5.528;2023-05-07T07:25:29;40.65;;;17.05;;
43160;SDS011;40968;52.342;5.528;2023-05-07T07:27:55;47.75;;;17.23;;
43160;SDS011;40968;52.342;5.528;2023-05-07T07:30:22;46.40;;;17.25;;
43160;SDS011;40968;52.342;5.528;2023-05-07T07:32:49;47.35;;;16.30;;
43160;SDS011;40968;52.342;5.528;2023-05-07T07:35:16;59.92;;;17.33;;
43160;SDS011;40968;52.342;5.528;2023-05-07T07:37:43;40.65;;;15.65;;
43160;SDS011;40968;52.342;5.528;2023-05-07T07:40:12;42.50;;;15.63;;
43160;SDS011;40968;52.342;5.528;2023-05-07T07:42:38;45.22;;;16.90;;
43160;SDS011;40968;52.342;5.528;2023-05-07T07:45:05;39.95;;;15.68;;
43160;SDS011;40968;52.342;5.528;2023-05-07T07:47:33;46.88;;;16.58;;
43160;SDS011;40968;52.342;5.528;2023-05-07T07:50:00;46.78;;;15.43;;
43160;SDS011;40968;52.342;5.528;2023-05-07T07:52:26;42.20;;;15.43;;
43160;SDS011;40968;52.342;5.528;2023-05-07T07:54:53;42.95;;;16.52;;
43160;SDS011;40968;52.342;5.528;2023-05-07T07:57:21;48.53;;;16.48;;
43160;SDS011;40968;52.342;5.528;2023-05-07T07:59:47;41.80;;;15.23;;
43160;SDS011;40968;52.342;5.528;2023-05-07T08:02:14;41.67;;;15.52;;
43160;SDS011;40968;52.342;5.528;2023-05-07T08:04:40;39.58;;;16.27;;
43160;SDS011;40968;52.342;5.528;2023-05-07T08:07:08;46.13;;;16.48;;
43160;SDS011;40968;52.342;5.528;2023-05-07T08:09:35;41.80;;;16.17;;
43160;SDS011;40968;52.342;5.528;2023-05-07T08:12:01;36.08;;;15.70;;
43160;SDS011;40968;52.342;5.528;2023-05-07T08:14:30;41.67;;;16.40;;
43160;SDS011;40968;52.342;5.528;2023-05-07T08:16:56;46.40;;;17.13;;
43160;SDS011;40968;52.342;5.528;2023-05-07T08:19:23;43.15;;;16.23;;
43160;SDS011;40968;52.342;5.528;2023-05-07T08:21:49;45.08;;;16.23;;
43160;SDS011;40968;52.342;5.528;2023-05-07T08:24:16;42.92;;;15.77;;
43160;SDS011;40968;52.342;5.528;2023-05-07T08:26:43;46.40;;;16.63;;
43160;SDS011;40968;52.342;5.528;2023-05-07T08:29:10;39.00;;;15.80;;
43160;SDS011;40968;52.342;5.528;2023-05-07T08:31:38;38.72;;;15.57;;
43160;SDS011;40968;52.342;5.528;2023-05-07T08:34:05;38.38;;;14.57;;
43160;SDS011;40968;52.342;5.528;2023-05-07T08:36:32;45.42;;;16.30;;
43160;SDS011;40968;52.342;5.528;2023-05-07T08:38:59;51.92;;;14.90;;
43160;SDS011;40968;52.342;5.528;2023-05-07T08:41:26;47.42;;;14.38;;
43160;SDS011;40968;52.342;5.528;2023-05-07T08:43:52;37.60;;;15.15;;
43160;SDS011;40968;52.342;5.528;2023-05-07T08:46:24;38.60;;;16.13;;
43160;SDS011;40968;52.342;5.528;2023-05-07T08:48:53;44.35;;;14.73;;
43160;SDS011;40968;52.342;5.528;2023-05-07T08:51:20;42.15;;;14.65;;
43160;SDS011;40968;52.342;5.528;2023-05-07T08:53:48;38.30;;;14.35;;
43160;SDS011;40968;52.342;5.528;2023-05-07T08:56:16;36.42;;;13.90;;
43160;SDS011;40968;52.342;5.528;2023-05-07T08:58:43;33.65;;;13.70;;
43160;SDS011;40968;52.342;5.528;2023-05-07T09:01:13;35.45;;;14.52;;
43160;SDS011;40968;52.342;5.528;2023-05-07T09:03:41;36.47;;;14.65;;
43160;SDS011;40968;52.342;5.528;2023-05-07T09:06:13;36.10;;;15.20;;
43160;SDS011;40968;52.342;5.528;2023-05-07T09:08:40;43.28;;;14.50;;
43160;SDS011;40968;52.342;5.528;2023-05-07T09:11:07;35.08;;;14.45;;
43160;SDS011;40968;52.342;5.528;2023-05-07T09:13:35;39.22;;;14.15;;
43160;SDS011;40968;52.342;5.528;2023-05-07T09:16:09;40.03;;;15.15;;
43160;SDS011;40968;52.342;5.528;2023-05-07T09:18:40;31.33;;;13.35;;
43160;SDS011;40968;52.342;5.528;2023-05-07T09:21:09;36.80;;;14.50;;
43160;SDS011;40968;52.342;5.528;2023-05-07T09:23:37;40.35;;;14.50;;
43160;SDS011;40968;52.342;5.528;2023-05-07T09:26:04;39.03;;;15.10;;
43160;SDS011;40968;52.342;5.528;2023-05-07T09:28:33;35.22;;;14.25;;
43160;SDS011;40968;52.342;5.528;2023-05-07T09:31:00;38.70;;;13.45;;
43160;SDS011;40968;52.342;5.528;2023-05-07T09:33:27;30.45;;;12.90;;
43160;SDS011;40968;52.342;5.528;2023-05-07T09:35:54;32.40;;;13.38;;
43160;SDS011;40968;52.342;5.528;2023-05-07T09:38:21;34.08;;;13.75;;
43160;SDS011;40968;52.342;5.528;2023-05-07T09:40:52;34.25;;;14.05;;
43160;SDS011;40968;52.342;5.528;2023-05-07T09:43:31;32.90;;;14.57;;
43160;SDS011;40968;52.342;5.528;2023-05-07T09:45:58;31.17;;;11.18;;
43160;SDS011;40968;52.342;5.528;2023-05-07T09:48:27;33.30;;;12.70;;
43160;SDS011;40968;52.342;5.528;2023-05-07T09:50:55;34.42;;;13.68;;
43160;SDS011;40968;52.342;5.528;2023-05-07T09:53:23;34.95;;;13.55;;
43160;SDS011;40968;52.342;5.528;2023-05-07T09:55:53;35.28;;;13.15;;
43160;SDS011;40968;52.342;5.528;2023-05-07T09:58:20;30.70;;;12.38;;
43160;SDS011;40968;52.342;5.528;2023-05-07T10:00:47;32.75;;;12.40;;
43160;SDS011;40968;52.342;5.528;2023-05-07T10:03:15;28.75;;;12.05;;
43160;SDS011;40968;52.342;5.528;2023-05-07T10:05:44;30.00;;;11.80;;
43160;SDS011;40968;52.342;5.528;2023-05-07T10:08:12;31.52;;;12.77;;
43160;SDS011;40968;52.342;5.528;2023-05-07T10:10:41;30.10;;;12.15;;
43160;SDS011;40968;52.342;5.528;2023-05-07T10:13:10;31.30;;;12.15;;
43160;SDS011;40968;52.342;5.528;2023-05-07T10:15:36;40.58;;;12.35;;
43160;SDS011;40968;52.342;5.528;2023-05-07T10:18:04;30.42;;;11.25;;
43160;SDS011;40968;52.342;5.528;2023-05-07T10:20:32;33.08;;;11.57;;
43160;SDS011;40968;52.342;5.528;2023-05-07T10:23:00;25.90;;;11.50;;
43160;SDS011;40968;52.342;5.528;2023-05-07T10:25:31;31.67;;;12.15;;
43160;SDS011;40968;52.342;5.528;2023-05-07T10:27:59;31.13;;;11.45;;
43160;SDS011;40968;52.342;5.528;2023-05-07T10:30:33;25.92;;;10.93;;
43160;SDS011;40968;52.342;5.528;2023-05-07T10:33:10;28.00;;;10.88;;
43160;SDS011;40968;52.342;5.528;2023-05-07T10:35:40;26.88;;;11.40;;
43160;SDS011;40968;52.342;5.528;2023-05-07T10:38:09;26.23;;;11.68;;
43160;SDS011;40968;52.342;5.528;2023-05-07T10:40:36;25.65;;;10.85;;
43160;SDS011;40968;52.342;5.528;2023-05-07T10:43:03;27.73;;;10.50;;
43160;SDS011;40968;52.342;5.528;2023-05-07T10:45:31;25.15;;;10.70;;
43160;SDS011;40968;52.342;5.528;2023-05-07T10:48:05;31.52;;;10.75;;
43160;SDS011;40968;52.342;5.528;2023-05-07T10:50:33;23.92;;;9.95;;
43160;SDS011;40968;52.342;5.528;2023-05-07T10:58:51;13.52;;;6.10;;
43160;SDS011;40968;52.342;5.528;2023-05-07T11:04:17;15.95;;;6.97;;
43160;SDS011;40968;52.342;5.528;2023-05-07T11:10:00;21.90;;;9.05;;
43160;SDS011;40968;52.342;5.528;2023-05-07T11:15:14;27.13;;;9.80;;
43160;SDS011;40968;52.342;5.528;2023-05-07T11:17:53;22.00;;;9.20;;
43160;SDS011;40968;52.342;5.528;2023-05-07T11:20:20;25.70;;;9.57;;
43160;SDS011;40968;52.342;5.528;2023-05-07T11:23:08;18.63;;;8.35;;
43160;SDS011;40968;52.342;5.528;2023-05-07T11:25:58;18.60;;;8.27;;
43160;SDS011;40968;52.342;5.528;2023-05-07T11:28:25;22.50;;;9.40;;
43160;SDS011;40968;52.342;5.528;2023-05-07T11:30:53;25.20;;;9.32;;
43160;SDS011;40968;52.342;5.528;2023-05-07T11:33:22;19.23;;;8.48;;
43160;SDS011;40968;52.342;5.528;2023-05-07T11:35:50;24.20;;;9.35;;
43160;SDS011;40968;52.342;5.528;2023-05-07T11:38:17;25.00;;;9.40;;
43160;SDS011;40968;52.342;5.528;2023-05-07T11:40:50;19.88;;;8.20;;
43160;SDS011;40968;52.342;5.528;2023-05-07T11:43:17;23.17;;;9.32;;
43160;SDS011;40968;52.342;5.528;2023-05-07T11:45:44;22.77;;;9.25;;
43160;SDS011;40968;52.342;5.528;2023-05-07T11:48:12;20.45;;;8.73;;
43160;SDS011;40968;52.342;5.528;2023-05-07T11:50:50;18.10;;;7.05;;
43160;SDS011;40968;52.342;5.528;2023-05-07T11:53:18;16.10;;;6.20;;
43160;SDS011;40968;52.342;5.528;2023-05-07T11:55:45;14.52;;;6.85;;
43160;SDS011;40968;52.342;5.528;2023-05-07T11:58:12;13.18;;;6.15;;
43160;SDS011;40968;52.342;5.528;2023-05-07T12:00:39;26.08;;;7.03;;
43160;SDS011;40968;52.342;5.528;2023-05-07T12:03:14;12.63;;;5.63;;
43160;SDS011;40968;52.342;5.528;2023-05-07T12:05:41;17.02;;;6.20;;
43160;SDS011;40968;52.342;5.528;2023-05-07T12:08:09;13.52;;;5.93;;
43160;SDS011;40968;52.342;5.528;2023-05-07T12:10:40;11.02;;;4.47;;
43160;SDS011;40968;52.342;5.528;2023-05-07T12:13:13;11.85;;;5.57;;
43160;SDS011;40968;52.342;5.528;2023-05-07T12:15:40;15.80;;;5.35;;
43160;SDS011;40968;52.342;5.528;2023-05-07T12:18:07;11.43;;;5.22;;
43160;SDS011;40968;52.342;5.528;2023-05-07T12:20:34;11.32;;;4.40;;
43160;SDS011;40968;52.342;5.528;2023-05-07T12:23:01;10.43;;;4.65;;
43160;SDS011;40968;52.342;5.528;2023-05-07T12:25:31;16.25;;;6.35;;
43160;SDS011;40968;52.342;5.528;2023-05-07T12:27:59;16.55;;;6.50;;
43160;SDS011;40968;52.342;5.528;2023-05-07T12:30:26;15.27;;;6.30;;
43160;SDS011;40968;52.342;5.528;2023-05-07T12:32:53;14.57;;;6.78;;
43160;SDS011;40968;52.342;5.528;2023-05-07T12:35:26;15.00;;;6.20;;
43160;SDS011;40968;52.342;5.528;2023-05-07T12:37:56;12.40;;;6.07;;
43160;SDS011;40968;52.342;5.528;2023-05-07T12:40:24;13.80;;;5.93;;
43160;SDS011;40968;52.342;5.528;2023-05-07T12:43:02;15.05;;;6.07;;
43160;SDS011;40968;52.342;5.528;2023-05-07T12:45:29;15.95;;;6.50;;
43160;SDS011;40968;52.342;5.528;2023-05-07T12:47:55;21.65;;;7.47;;
43160;SDS011;40968;52.342;5.528;2023-05-07T12:50:22;22.83;;;7.50;;
43160;SDS011;40968;52.342;5.528;2023-05-07T12:52:49;25.50;;;7.88;;
43160;SDS011;40968;52.342;5.528;2023-05-07T12:55:16;15.77;;;6.93;;
43160;SDS011;40968;52.342;5.528;2023-05-07T12:57:43;19.27;;;7.47;;
43160;SDS011;40968;52.342;5.528;2023-05-07T13:00:15;16.58;;;7.03;;
43160;SDS011;40968;52.342;5.528;2023-05-07T13:02:42;15.50;;;6.72;;
43160;SDS011;40968;52.342;5.528;2023-05-07T13:05:10;14.55;;;6.18;;
43160;SDS011;40968;52.342;5.528;2023-05-07T13:07:37;19.15;;;7.18;;
43160;SDS011;40968;52.342;5.528;2023-05-07T13:10:04;20.95;;;6.78;;
43160;SDS011;40968;52.342;5.528;2023-05-07T13:12:31;21.08;;;7.90;;
43160;SDS011;40968;52.342;5.528;2023-05-07T13:14:58;18.88;;;7.97;;
43160;SDS011;40968;52.342;5.528;2023-05-07T13:17:26;19.95;;;8.45;;
43160;SDS011;40968;52.342;5.528;2023-05-07T13:19:53;19.05;;;7.68;;
43160;SDS011;40968;52.342;5.528;2023-05-07T13:22:19;20.73;;;7.60;;
43160;SDS011;40968;52.342;5.528;2023-05-07T13:24:46;19.75;;;7.40;;
43160;SDS011;40968;52.342;5.528;2023-05-07T13:27:12;20.83;;;8.43;;
43160;SDS011;40968;52.342;5.528;2023-05-07T13:29:39;28.25;;;9.50;;
43160;SDS011;40968;52.342;5.528;2023-05-07T13:32:05;20.55;;;8.10;;
43160;SDS011;40968;52.342;5.528;2023-05-07T13:34:33;19.08;;;8.05;;
43160;SDS011;40968;52.342;5.528;2023-05-07T13:37:00;17.90;;;8.40;;
43160;SDS011;40968;52.342;5.528;2023-05-07T13:39:26;18.67;;;8.02;;
43160;SDS011;40968;52.342;5.528;2023-05-07T13:41:53;13.90;;;5.50;;
43160;SDS011;40968;52.342;5.528;2023-05-07T13:44:20;13.02;;;4.93;;
43160;SDS011;40968;52.342;5.528;2023-05-07T13:46:46;7.05;;;3.25;;
43160;SDS011;40968;52.342;5.528;2023-05-07T13:49:13;8.70;;;3.17;;
43160;SDS011;40968;52.342;5.528;2023-05-07T13:51:41;6.20;;;2.78;;
43160;SDS011;40968;52.342;5.528;2023-05-07T13:54:08;9.82;;;3.13;;
43160;SDS011;40968;52.342;5.528;2023-05-07T13:56:34;11.25;;;4.65;;
43160;SDS011;40968;52.342;5.528;2023-05-07T13:59:01;13.55;;;4.75;;
43160;SDS011;40968;52.342;5.528;2023-05-07T14:01:27;10.57;;;4.40;;
43160;SDS011;40968;52.342;5.528;2023-05-07T14:03:55;9.23;;;3.90;;
43160;SDS011;40968;52.342;5.528;2023-05-07T14:06:22;8.25;;;3.95;;
43160;SDS011;40968;52.342;5.528;2023-05-07T14:08:50;7.70;;;4.20;;
43160;SDS011;40968;52.342;5.528;2023-05-07T14:11:17;10.32;;;5.00;;
43160;SDS011;40968;52.342;5.528;2023-05-07T14:13:43;14.27;;;4.57;;
43160;SDS011;40968;52.342;5.528;2023-05-07T14:16:10;13.40;;;4.72;;
43160;SDS011;40968;52.342;5.528;2023-05-07T14:18:36;15.82;;;5.53;;
43160;SDS011;40968;52.342;5.528;2023-05-07T14:21:04;16.67;;;5.47;;
43160;SDS011;40968;52.342;5.528;2023-05-07T14:23:31;14.57;;;6.30;;
43160;SDS011;40968;52.342;5.528;2023-05-07T14:25:59;15.20;;;6.75;;
43160;SDS011;40968;52.342;5.528;2023-05-07T14:28:25;17.73;;;6.78;;
43160;SDS011;40968;52.342;5.528;2023-05-07T14:30:52;20.02;;;8.50;;
43160;SDS011;40968;52.342;5.528;2023-05-07T14:33:18;17.55;;;8.55;;
43160;SDS011;40968;52.342;5.528;2023-05-07T14:35:45;22.52;;;9.10;;
43160;SDS011;40968;52.342;5.528;2023-05-07T14:38:13;28.92;;;10.18;;
43160;SDS011;40968;52.342;5.528;2023-05-07T14:40:40;23.30;;;9.48;;
43160;SDS011;40968;52.342;5.528;2023-05-07T14:43:08;29.92;;;10.38;;
43160;SDS011;40968;52.342;5.528;2023-05-07T14:45:35;25.70;;;9.82;;
43160;SDS011;40968;52.342;5.528;2023-05-07T14:48:01;21.95;;;9.88;;